createdAt,value
2018-02-12T00:02:39.799Z,3.60
2018-02-12T00:07:41.122Z,6.27
2018-02-12T00:12:42.450Z,5.03
2018-02-12T00:17:43.879Z,6.07
2018-02-12T00:22:45.971Z,7.00
2018-02-12T00:27:47.299Z,3.53
2018-02-12T00:32:48.713Z,6.80
2018-02-12T00:37:50.071Z,4.47
2018-02-12T00:42:51.382Z,3.37
2018-02-12T00:47:52.869Z,5.10
2018-02-12T00:52:54.201Z,3.40
2018-02-12T00:57:55.535Z,3.77
2018-02-12T01:02:57.020Z,4.30
2018-02-12T01:07:58.351Z,3.80
2018-02-12T01:12:59.738Z,3.63
2018-02-12T01:18:01.135Z,5.60
2018-02-12T01:23:02.687Z,4.60
2018-02-12T01:28:04.022Z,4.27
2018-02-12T01:33:05.571Z,5.00
2018-02-12T01:38:06.954Z,4.50
2018-02-12T01:43:08.278Z,4.70
2018-02-12T01:48:09.689Z,4.30
2018-02-12T01:53:11.023Z,4.03
2018-02-12T01:58:12.356Z,5.00
2018-02-12T02:03:13.759Z,4.97
2018-02-12T02:08:15.315Z,5.60
2018-02-12T02:13:16.715Z,11.20
2018-02-12T02:18:18.090Z,15.53
2018-02-12T02:23:19.437Z,7.00
2018-02-12T02:28:20.779Z,13.30
2018-02-12T02:33:22.154Z,6.97
2018-02-12T02:38:23.519Z,6.93
2018-02-12T02:43:25.624Z,9.10
2018-02-12T02:48:26.954Z,7.90
2018-02-12T02:53:28.284Z,8.63
2018-02-12T02:58:29.600Z,6.00
2018-02-12T03:03:31.712Z,9.33
2018-02-12T03:08:33.807Z,8.00
2018-02-12T03:13:35.163Z,7.00
2018-02-12T03:18:36.510Z,7.10
2018-02-12T03:23:37.875Z,10.23
2018-02-12T03:28:39.274Z,8.00
2018-02-12T03:33:41.382Z,10.47
2018-02-12T03:38:43.532Z,7.83
2018-02-12T03:43:44.878Z,7.30
2018-02-12T03:48:47.102Z,7.70
2018-02-12T03:53:48.417Z,7.17
2018-02-12T03:58:56.793Z,7.47
2018-02-12T04:03:58.181Z,7.50
2018-02-12T04:08:59.503Z,7.63
2018-02-12T04:14:01.599Z,8.20
2018-02-12T04:19:02.994Z,7.37
2018-02-12T04:24:04.364Z,8.37
2018-02-12T04:29:05.691Z,11.93
2018-02-12T04:34:07.068Z,9.63
2018-02-12T04:39:09.198Z,9.50
2018-02-12T04:44:10.498Z,8.03
2018-02-12T04:49:11.838Z,15.20
2018-02-12T04:54:13.216Z,17.83
2018-02-12T04:59:14.614Z,13.83
2018-02-12T05:04:15.971Z,12.30
2018-02-12T05:09:17.323Z,17.40
2018-02-12T05:14:19.421Z,13.67
2018-02-12T05:19:21.532Z,14.57
2018-02-12T05:24:22.887Z,16.30
2018-02-12T05:29:24.249Z,14.43
2018-02-12T05:34:25.594Z,17.67
2018-02-12T05:39:27.683Z,12.60
2018-02-12T05:44:29.054Z,16.03
2018-02-12T05:49:30.415Z,16.43
2018-02-12T05:54:31.795Z,13.90
2018-02-12T05:59:33.138Z,23.90
2018-02-12T06:04:34.495Z,12.07
2018-02-12T06:09:42.923Z,15.80
2018-02-12T06:14:44.325Z,11.33
2018-02-12T06:19:45.662Z,13.57
2018-02-12T06:24:47.023Z,13.97
2018-02-12T06:29:48.381Z,15.50
2018-02-12T06:34:49.698Z,15.73
2018-02-12T06:39:51.074Z,20.83
2018-02-12T06:44:52.420Z,11.33
2018-02-12T06:49:53.763Z,13.00
2018-02-12T06:54:55.087Z,10.90
2018-02-12T06:59:56.430Z,15.67
2018-02-12T07:04:57.798Z,10.83
2018-02-12T07:09:59.894Z,16.43
2018-02-12T07:15:01.242Z,19.10
2018-02-12T07:20:02.624Z,15.93
2018-02-12T07:25:04.007Z,15.00
2018-02-12T07:30:05.367Z,21.70
2018-02-12T07:35:07.456Z,18.50
2018-02-12T07:40:08.808Z,15.30
2018-02-12T07:45:10.163Z,18.17
2018-02-12T07:50:12.242Z,18.27
2018-02-12T07:55:13.589Z,12.50
2018-02-12T08:00:14.931Z,11.90
2018-02-12T08:05:17.062Z,22.77
2018-02-12T08:10:18.519Z,21.43
2018-02-12T08:15:19.861Z,16.20
2018-02-12T08:20:21.272Z,12.43
2018-02-12T08:25:22.638Z,8.20
2018-02-12T08:30:24.787Z,8.10
2018-02-12T08:35:26.249Z,8.10
2018-02-12T08:40:27.635Z,12.23
2018-02-12T08:45:29.645Z,14.93
2018-02-12T08:50:31.093Z,9.33
2018-02-12T08:55:32.472Z,11.90
2018-02-12T09:00:34.564Z,10.83
2018-02-12T09:05:35.937Z,11.50
2018-02-12T09:10:37.291Z,9.60
2018-02-12T09:15:38.654Z,20.93
2018-02-12T09:20:40.776Z,11.43
2018-02-12T09:25:42.902Z,10.37
2018-02-12T09:30:44.231Z,9.30
2018-02-12T09:35:48.812Z,6.67
2018-02-12T09:40:50.311Z,9.20
2018-02-12T09:45:51.690Z,6.03
2018-02-12T09:50:53.063Z,4.20
2018-02-12T09:55:54.391Z,4.87
2018-02-12T10:00:56.534Z,6.03
2018-02-12T10:05:57.879Z,4.53
2018-02-12T10:10:59.296Z,7.80
2018-02-12T10:16:00.693Z,4.37
2018-02-12T10:21:02.104Z,2.57
2018-02-12T10:26:03.454Z,11.23
2018-02-12T10:31:05.538Z,2.10
2018-02-12T10:36:06.866Z,1.57
2018-02-12T10:41:08.336Z,2.73
2018-02-12T10:46:10.508Z,1.30
2018-02-12T10:51:12.000Z,3.33
2018-02-12T10:56:13.331Z,2.57
2018-02-12T11:01:15.403Z,1.80
2018-02-12T11:06:16.847Z,2.73
2018-02-12T11:11:18.228Z,4.20
2018-02-12T11:16:19.611Z,6.47
2018-02-12T11:21:21.997Z,7.40
2018-02-12T11:26:23.421Z,5.70
2018-02-12T11:31:25.527Z,4.60
2018-02-12T11:36:27.616Z,7.00
2018-02-12T11:41:29.747Z,12.60
2018-02-12T11:46:31.197Z,7.47
2018-02-12T11:51:32.576Z,13.00
2018-02-12T11:56:33.976Z,8.83
2018-02-12T12:01:35.332Z,9.10
2018-02-12T12:06:36.731Z,11.50
2018-02-12T12:11:38.258Z,6.33
2018-02-12T12:16:39.645Z,6.63
2018-02-12T12:21:41.023Z,7.20
2018-02-12T12:26:44.457Z,19.40
2018-02-12T12:31:46.679Z,11.63
2018-02-12T12:36:48.006Z,9.03
2018-02-12T12:41:50.141Z,11.20
2018-02-12T12:46:51.495Z,9.67
2018-02-12T12:51:54.220Z,8.50
2018-02-12T12:56:56.309Z,7.90
2018-02-12T13:01:59.708Z,6.40
2018-02-12T13:07:01.060Z,14.03
2018-02-12T13:12:03.198Z,9.20
2018-02-12T13:17:04.659Z,16.13
2018-02-12T13:22:06.867Z,14.30
2018-02-12T13:27:09.020Z,6.90
2018-02-12T13:32:10.360Z,9.13
2018-02-12T13:37:12.438Z,15.87
2018-02-12T13:42:13.790Z,4.90
2018-02-12T13:47:15.158Z,4.77
2018-02-12T13:52:17.297Z,25.63
2018-02-12T13:57:18.607Z,6.70
2018-02-12T14:02:19.960Z,6.30
2018-02-12T14:07:21.284Z,4.13
2018-02-12T14:12:22.607Z,22.77
2018-02-12T14:17:23.971Z,6.97
2018-02-12T14:22:25.304Z,7.50
2018-02-12T14:27:26.639Z,3.13
2018-02-12T14:32:27.983Z,5.73
2018-02-12T14:37:29.331Z,4.43
2018-02-12T14:42:30.700Z,12.93
2018-02-12T14:47:32.162Z,8.93
2018-02-12T14:52:33.559Z,6.73
2018-02-12T14:57:34.938Z,6.97
2018-02-12T15:02:36.361Z,13.83
2018-02-12T15:07:37.762Z,12.43
2018-02-12T15:12:39.161Z,7.97
2018-02-12T15:17:40.548Z,8.13
2018-02-12T15:22:41.908Z,10.00
2018-02-12T15:27:44.059Z,6.20
2018-02-12T15:32:46.233Z,3.93
2018-02-12T15:37:47.554Z,5.30
2018-02-12T15:42:48.935Z,0.97
2018-02-12T15:47:50.349Z,0.83
2018-02-12T15:52:51.759Z,0.77
2018-02-12T15:57:53.823Z,0.93
2018-02-12T16:02:55.193Z,1.50
2018-02-12T16:07:56.519Z,1.77
2018-02-12T16:12:57.943Z,3.90
2018-02-12T16:18:00.088Z,1.73
2018-02-12T16:23:01.556Z,0.97
2018-02-12T16:28:03.073Z,0.67
2018-02-12T16:33:08.248Z,1.40
2018-02-12T16:38:09.659Z,2.30
2018-02-12T16:43:11.059Z,0.80
2018-02-12T16:48:12.461Z,2.30
2018-02-12T16:53:13.825Z,2.77
2018-02-12T16:58:15.199Z,1.00
2018-02-12T17:03:16.602Z,4.43
2018-02-12T17:08:17.992Z,0.93
2018-02-12T17:13:19.372Z,1.90
2018-02-12T17:18:20.809Z,4.00
2018-02-12T17:23:22.156Z,4.00
2018-02-12T17:28:23.536Z,2.10
2018-02-12T17:33:24.958Z,5.57
2018-02-12T17:38:26.338Z,3.03
2018-02-12T17:43:27.718Z,5.93
2018-02-12T17:48:29.116Z,3.33
2018-02-12T17:53:30.474Z,2.50
2018-02-12T17:58:31.859Z,3.73
2018-02-12T18:03:34.039Z,2.20
2018-02-12T18:08:35.407Z,3.40
2018-02-12T18:13:36.872Z,14.80
2018-02-12T18:18:38.257Z,3.90
2018-02-12T18:23:39.637Z,11.20
2018-02-12T18:28:41.767Z,7.40
2018-02-12T18:33:43.472Z,3.70
2018-02-12T18:38:44.887Z,11.83
2018-02-12T18:43:46.580Z,7.23
2018-02-12T18:48:47.998Z,8.50
2018-02-12T18:53:49.372Z,11.67
2018-02-12T18:58:50.844Z,10.87
2018-02-12T19:03:52.235Z,20.33
2018-02-12T19:08:53.592Z,17.80
2018-02-12T19:13:56.252Z,7.57
2018-02-12T19:18:57.644Z,8.90
2018-02-12T19:23:59.111Z,15.70
2018-02-12T19:29:00.752Z,12.53
2018-02-12T19:34:02.279Z,13.90
2018-02-12T19:39:04.032Z,12.73
2018-02-12T19:44:07.667Z,16.13
2018-02-12T19:49:09.291Z,25.20
2018-02-12T19:54:10.687Z,17.30
2018-02-12T19:59:13.094Z,13.80
2018-02-12T20:04:14.555Z,10.60
2018-02-12T20:09:16.884Z,18.50
2018-02-12T20:14:18.367Z,10.80
2018-02-12T20:19:21.458Z,9.67
2018-02-12T20:24:23.598Z,19.07
2018-02-12T20:29:25.007Z,15.50
2018-02-12T20:34:26.391Z,14.70
2018-02-12T20:39:27.784Z,13.50
2018-02-12T20:44:29.168Z,19.80
2018-02-12T20:49:30.569Z,12.30
2018-02-12T20:54:32.234Z,19.17
2018-02-12T20:59:33.649Z,16.90
2018-02-12T21:04:35.083Z,19.53
2018-02-12T21:09:37.208Z,15.27
2018-02-12T21:14:38.581Z,16.53
2018-02-12T21:19:40.742Z,15.90
2018-02-12T21:24:42.138Z,21.53
2018-02-12T21:29:44.113Z,18.87
2018-02-12T21:34:45.778Z,20.23
2018-02-12T21:39:47.918Z,18.80
2018-02-12T21:44:49.362Z,14.77
2018-02-12T21:49:50.757Z,17.10
2018-02-12T21:54:52.112Z,21.10
2018-02-12T21:59:53.438Z,16.93
2018-02-12T22:04:54.877Z,19.23
2018-02-12T22:09:56.254Z,28.80
2018-02-12T22:14:57.678Z,18.43
2018-02-12T22:19:59.100Z,24.53
2018-02-12T22:25:00.574Z,21.03
2018-02-12T22:30:01.905Z,34.30
2018-02-12T22:35:03.339Z,23.43
2018-02-12T22:40:04.734Z,21.70
2018-02-12T22:45:06.049Z,21.80
2018-02-12T22:50:07.610Z,28.33
2018-02-12T22:55:08.995Z,22.90
2018-02-12T23:00:10.382Z,25.97
2018-02-12T23:05:11.709Z,36.70
2018-02-12T23:10:13.063Z,22.90
2018-02-12T23:15:20.602Z,25.53
2018-02-12T23:20:21.974Z,23.30
2018-02-12T23:25:23.314Z,26.80
2018-02-12T23:30:24.767Z,29.97
2018-02-12T23:35:26.111Z,22.90
2018-02-12T23:40:28.258Z,20.90
2018-02-12T23:45:29.585Z,24.87
2018-02-12T23:50:30.907Z,26.10
2018-02-12T23:55:33.233Z,25.50
